Terminal Aerodrome Forecast
Issued by NWS

Current Version | Previous Version | Text Only | Print | Product List | Glossary Off
Versions: 1 2 3 4 5 6 7 8 9 10 11 12 13 14 15 16 17 18 19 20 21 22 23 24 25 26 27

000
FTUS41 KRLX 230800 AAA
TAFCKB
TAF AMD
KCKB 230848Z 2309/2406 VRB03KT 6SM HZ SCT050
      TEMPO 2309/2313 BKN050
     FM231500 23007KT P6SM BKN040
     FM231700 24007KT P6SM VCTS BKN040CB
     FM232000 27007KT 5SM TSRA BKN030CB
     FM232200 28006KT 3SM TSRA BR BKN024CB
     FM240100 32004KT 4SM -SHRA BR BKN020
     FM240400 31003KT 4SM BR BKN018=

USA.gov is the U.S. government's official web portal to all federal, state and local government web resources and services.